Time;durP1;ratioP1;P1;durP2;ratioP2;P2;SDS_P1;SDS_P2;PMS_P1;PMS_P2;Temp;Humidity;BMP_temperature;BMP_pressure;BME280_temperature;BME280_humidity;BME280_pressure;Samples;Min_cycle;Max_cycle;Signal;HPM_P1;HPM_P2
2022/10/24 00:02:09;;;;;;;;;;;;;;;14.09;100.00;100721.50;5549695;32;34806;-69
2022/10/24 00:05:18;;;;;;;;;;;;;;;14.10;100.00;100725.81;5549829;32;34218;-70
2022/10/24 00:08:22;;;;;;;;;;;;;;;14.10;100.00;100719.66;5535740;32;35533;-69
2022/10/24 00:11:29;;;;;;;;;;;;;;;14.13;100.00;100728.16;5549406;32;34974;-69
2022/10/24 00:14:38;;;;;;;;;;;;;;;14.05;100.00;100728.22;5549282;32;34297;-69
2022/10/24 00:17:46;;;;;;;;;;;;;;;14.02;100.00;100728.59;5551043;32;34222;-69
2022/10/24 00:20:57;;;;;;;;;;;;;;;14.09;100.00;100710.81;5552210;32;34352;-69
2022/10/24 00:24:04;;;;;;;;;;;;;;;14.07;100.00;100720.03;5552079;32;34341;-69
2022/10/24 00:27:10;;;;;;;;;;;;;;;14.07;100.00;100718.19;5537880;32;34740;-70
2022/10/24 00:30:18;;;;;;;;;;;;;;;14.06;100.00;100721.03;5551934;32;34833;-69
2022/10/24 00:33:24;;;;;;;;;;;;;;;14.21;100.00;100716.56;5551942;32;34312;-69
2022/10/24 00:36:32;;;;;;;;;;;;;;;14.10;100.00;100722.31;5551925;32;34928;-69
2022/10/24 00:39:38;;;;;;;;;;;;;;;14.04;100.00;100723.88;5551917;32;34242;-69
2022/10/24 00:42:46;;;;;;;;;;;;;;;14.01;100.00;100721.59;5538051;32;34939;-69
2022/10/24 00:45:53;;;;;;;;;;;;;;;14.00;100.00;100711.91;5551821;32;34284;-69
2022/10/24 00:49:00;;;;;;;;;;;;;;;14.09;100.00;100718.81;5538534;32;34655;-69
2022/10/24 00:52:10;;;;;;;;;;;;;;;14.06;100.00;100718.37;5538631;32;34779;-69
2022/10/24 00:55:17;;;;;;;;;;;;;;;14.04;100.00;100713.22;5552057;32;35001;-69
2022/10/24 00:58:25;;;;;;;;;;;;;;;14.00;100.00;100703.09;5537585;32;33114;-69
2022/10/24 01:01:32;;;;;;;;;;;;;;;14.06;100.00;100703.19;5551640;32;34773;-69
2022/10/24 01:04:41;;;;;;;;;;;;;;;14.04;100.00;100701.75;5538960;32;34209;-70
2022/10/24 01:07:51;;;;;;;;;;;;;;;13.99;100.00;100694.25;5538762;32;34601;-69
2022/10/24 01:11:07;;;;;;;;;;;;;;;13.88;100.00;100702.72;5538437;32;34433;-69
2022/10/24 01:14:25;;;;;;;;;;;;;;;13.92;100.00;100694.16;5551476;32;34954;-68
2022/10/24 01:18:01;;;;;;;;;;;;;;;13.87;100.00;100696.56;5551422;32;34926;-69
2022/10/24 01:21:23;;;;;;;;;;;;;;;13.97;100.00;100695.47;5539527;32;34635;-68
2022/10/24 01:24:30;;;;;;;;;;;;;;;13.85;100.00;100684.37;5551598;32;34873;-69
2022/10/24 01:27:38;;;;;;;;;;;;;;;13.96;100.00;100696.47;5550935;32;34255;-69
2022/10/24 01:30:50;;;;;;;;;;;;;;;13.94;100.00;100708.13;5551407;32;34925;-69
2022/10/24 01:34:06;;;;;;;;;;;;;;;13.96;100.00;100712.47;5551245;32;34276;-69
2022/10/24 01:37:21;;;;;;;;;;;;;;;13.92;100.00;100718.19;5551423;32;34312;-68
2022/10/24 01:40:33;;;;;;;;;;;;;;;13.89;100.00;100707.03;5551513;32;34577;-69
2022/10/24 01:43:42;;;;;;;;;;;;;;;13.93;100.00;100687.00;5551374;32;34933;-69
2022/10/24 01:46:53;;;;;;;;;;;;;;;13.92;100.00;100688.00;5551293;32;34220;-69
2022/10/24 01:50:01;;;;;;;;;;;;;;;13.91;100.00;100681.84;5551281;32;34734;-69
2022/10/24 01:53:08;;;;;;;;;;;;;;;13.90;100.00;100688.19;5551136;32;34291;-68
2022/10/24 01:56:14;;;;;;;;;;;;;;;13.85;100.00;100679.88;5537200;32;34291;-69
2022/10/24 01:59:27;;;;;;;;;;;;;;;13.84;100.00;100680.91;5551164;32;35044;-69
2022/10/24 02:02:40;;;;;;;;;;;;;;;13.93;100.00;100692.34;5551074;32;34808;-69
2022/10/24 02:05:55;;;;;;;;;;;;;;;13.85;100.00;100695.06;5537451;32;32599;-69
2022/10/24 02:09:06;;;;;;;;;;;;;;;13.91;100.00;100692.50;5551134;32;33817;-69
2022/10/24 02:12:16;;;;;;;;;;;;;;;13.85;100.00;100679.88;5551118;32;34153;-69
2022/10/24 02:15:25;;;;;;;;;;;;;;;13.74;100.00;100687.53;5551091;32;34648;-69
2022/10/24 02:18:32;;;;;;;;;;;;;;;13.76;100.00;100685.47;5551234;32;34171;-69
2022/10/24 02:21:48;;;;;;;;;;;;;;;13.72;100.00;100673.53;5551002;32;34223;-69
2022/10/24 02:25:00;;;;;;;;;;;;;;;13.74;100.00;100661.69;5550983;32;34936;-69
2022/10/24 02:28:10;;;;;;;;;;;;;;;13.82;100.00;100660.75;5550900;32;34170;-69
2022/10/24 02:31:20;;;;;;;;;;;;;;;13.84;100.00;100667.59;5551072;32;34794;-69
2022/10/24 02:34:29;;;;;;;;;;;;;;;13.89;100.00;100656.38;5550583;32;35095;-68
2022/10/24 02:37:37;;;;;;;;;;;;;;;13.83;100.00;100663.25;5550771;32;34955;-69
2022/10/24 02:40:44;;;;;;;;;;;;;;;13.75;100.00;100665.16;5549469;32;34687;-68
2022/10/24 02:43:54;;;;;;;;;;;;;;;13.74;100.00;100663.53;5536714;32;35103;-69
2022/10/24 02:47:04;;;;;;;;;;;;;;;13.62;100.00;100664.94;5550652;32;34657;-69
2022/10/24 02:50:12;;;;;;;;;;;;;;;13.59;100.00;100668.00;5550905;32;34861;-69
2022/10/24 02:53:20;;;;;;;;;;;;;;;13.61;100.00;100664.13;5550708;32;34273;-69
2022/10/24 02:56:27;;;;;;;;;;;;;;;13.65;100.00;100660.06;5550770;32;34310;-69
2022/10/24 02:59:33;;;;;;;;;;;;;;;13.73;100.00;100661.84;5550937;32;34950;-69
2022/10/24 03:02:41;;;;;;;;;;;;;;;13.67;100.00;100650.06;5550641;32;34793;-69
2022/10/24 03:05:48;;;;;;;;;;;;;;;13.63;100.00;100646.13;5550518;32;34295;-69
2022/10/24 03:08:55;;;;;;;;;;;;;;;13.58;100.00;100650.34;5550614;32;34208;-69
2022/10/24 03:12:04;;;;;;;;;;;;;;;13.57;100.00;100638.84;5536702;32;35120;-69
2022/10/24 03:15:11;;;;;;;;;;;;;;;13.59;100.00;100638.66;5536480;32;34907;-69
2022/10/24 03:18:18;;;;;;;;;;;;;;;13.59;100.00;100639.50;5550185;32;34657;-70
2022/10/24 03:21:24;;;;;;;;;;;;;;;13.54;100.00;100649.03;5550415;32;34258;-69
2022/10/24 03:24:30;;;;;;;;;;;;;;;13.54;100.00;100646.38;5550336;32;34507;-69
2022/10/24 03:27:47;;;;;;;;;;;;;;;13.54;100.00;100649.88;5535953;32;35764;-70
2022/10/24 03:30:53;;;;;;;;;;;;;;;13.61;100.00;100642.78;5550542;32;34340;-69
2022/10/24 03:34:01;;;;;;;;;;;;;;;13.60;100.00;100630.50;5536243;32;34273;-69
2022/10/24 03:37:08;;;;;;;;;;;;;;;13.52;100.00;100622.56;5536280;32;34567;-69
2022/10/24 03:40:18;;;;;;;;;;;;;;;13.49;100.00;100634.41;5550091;32;34242;-69
2022/10/24 03:43:23;;;;;;;;;;;;;;;13.53;100.00;100632.22;5549963;32;34459;-69
2022/10/24 03:46:31;;;;;;;;;;;;;;;13.40;100.00;100645.34;5549875;32;34327;-69
2022/10/24 03:49:39;;;;;;;;;;;;;;;13.40;100.00;100637.34;5549887;32;34294;-69
2022/10/24 03:52:51;;;;;;;;;;;;;;;13.43;100.00;100643.13;5551593;32;34966;-69
2022/10/24 03:56:00;;;;;;;;;;;;;;;13.29;100.00;100641.25;5552173;32;34373;-69
2022/10/24 03:59:07;;;;;;;;;;;;;;;13.49;100.00;100633.59;5552220;32;34303;-69
2022/10/24 04:02:13;;;;;;;;;;;;;;;13.39;100.00;100641.84;5538370;32;34222;-69
2022/10/24 04:05:18;;;;;;;;;;;;;;;13.39;100.00;100652.50;5538744;32;34823;-69
2022/10/24 04:08:24;;;;;;;;;;;;;;;13.35;100.00;100648.53;5552126;32;34396;-69
2022/10/24 04:11:32;;;;;;;;;;;;;;;13.34;100.00;100644.22;5552250;32;34957;-69
2022/10/24 04:14:37;;;;;;;;;;;;;;;13.27;100.00;100659.25;5552128;32;34690;-69
2022/10/24 04:17:45;;;;;;;;;;;;;;;13.32;100.00;100667.53;5551707;32;34870;-70
2022/10/24 04:20:52;;;;;;;;;;;;;;;13.26;100.00;100664.78;5552049;32;34722;-69
2022/10/24 04:24:00;;;;;;;;;;;;;;;13.23;100.00;100659.78;5551980;32;34682;-69
2022/10/24 04:27:05;;;;;;;;;;;;;;;13.25;100.00;100665.78;5551986;32;34225;-69
2022/10/24 04:30:13;;;;;;;;;;;;;;;13.25;100.00;100674.59;5551803;32;34950;-69
2022/10/24 04:33:22;;;;;;;;;;;;;;;13.20;100.00;100671.63;5551966;32;34372;-69
2022/10/24 04:36:31;;;;;;;;;;;;;;;13.07;100.00;100663.34;5551700;32;34904;-69
2022/10/24 04:39:38;;;;;;;;;;;;;;;13.13;100.00;100648.53;5537856;32;35747;-69
2022/10/24 04:42:43;;;;;;;;;;;;;;;13.15;100.00;100647.34;5551841;32;34271;-69
2022/10/24 04:45:51;;;;;;;;;;;;;;;13.16;100.00;100662.34;5551562;32;34248;-70
2022/10/24 04:49:00;;;;;;;;;;;;;;;13.17;100.00;100648.00;5551255;32;34332;-69
2022/10/24 04:52:05;;;;;;;;;;;;;;;13.07;100.00;100634.03;5551560;32;34613;-69
2022/10/24 04:55:10;;;;;;;;;;;;;;;13.09;100.00;100642.69;5537819;32;33006;-69
2022/10/24 04:58:14;;;;;;;;;;;;;;;13.07;100.00;100642.88;5538049;32;35131;-69
2022/10/24 05:01:20;;;;;;;;;;;;;;;13.14;100.00;100645.69;5551546;32;34202;-69
2022/10/24 05:04:24;;;;;;;;;;;;;;;13.08;100.00;100636.53;5536966;32;34351;-68
2022/10/24 05:07:28;;;;;;;;;;;;;;;12.93;100.00;100638.31;5551552;32;34206;-68
2022/10/24 05:10:32;;;;;;;;;;;;;;;12.94;100.00;100634.66;5550857;32;35134;-68
2022/10/24 05:13:38;;;;;;;;;;;;;;;12.95;100.00;100630.16;5551226;32;34615;-69
2022/10/24 05:16:42;;;;;;;;;;;;;;;12.93;100.00;100627.66;5551543;32;34952;-68
2022/10/24 05:19:48;;;;;;;;;;;;;;;12.87;100.00;100641.69;5550980;32;34735;-69
2022/10/24 05:22:51;;;;;;;;;;;;;;;12.82;100.00;100645.88;5551299;32;34996;-68
2022/10/24 05:25:57;;;;;;;;;;;;;;;12.93;100.00;100664.09;5551330;32;34574;-69
2022/10/24 05:29:06;;;;;;;;;;;;;;;12.83;100.00;100674.19;5550925;32;34321;-69
2022/10/24 05:32:16;;;;;;;;;;;;;;;12.82;100.00;100675.19;5537358;32;34700;-69
2022/10/24 05:35:21;;;;;;;;;;;;;;;12.75;100.00;100688.34;5551380;32;34857;-69
2022/10/24 05:38:25;;;;;;;;;;;;;;;12.81;100.00;100669.03;5550779;32;34183;-69
2022/10/24 05:41:28;;;;;;;;;;;;;;;12.90;100.00;100683.94;5551152;32;34480;-68
2022/10/24 05:44:32;;;;;;;;;;;;;;;12.91;100.00;100676.78;5550825;32;34282;-68
2022/10/24 05:47:35;;;;;;;;;;;;;;;12.89;100.00;100686.78;5551233;32;34332;-68
2022/10/24 05:50:38;;;;;;;;;;;;;;;12.81;100.00;100692.97;5550992;32;34993;-68
2022/10/24 05:53:41;;;;;;;;;;;;;;;12.71;100.00;100695.03;5550916;32;34199;-68
2022/10/24 05:56:44;;;;;;;;;;;;;;;12.67;100.00;100696.38;5551072;32;34689;-68
2022/10/24 05:59:46;;;;;;;;;;;;;;;12.70;100.00;100703.19;5550911;32;34257;-68
2022/10/24 06:02:50;;;;;;;;;;;;;;;12.73;100.00;100692.19;5551643;32;34228;-69
2022/10/24 06:05:54;;;;;;;;;;;;;;;12.87;100.00;100702.94;5550992;32;34239;-68
2022/10/24 06:08:57;;;;;;;;;;;;;;;12.77;100.00;100712.97;5550811;32;34249;-69
2022/10/24 06:12:00;;;;;;;;;;;;;;;12.80;100.00;100720.59;5550600;32;35052;-69
2022/10/24 06:15:06;;;;;;;;;;;;;;;12.78;100.00;100722.59;5536634;32;34355;-69
2022/10/24 06:18:09;;;;;;;;;;;;;;;12.77;100.00;100726.28;5550593;32;34220;-69
2022/10/24 06:21:14;;;;;;;;;;;;;;;12.87;100.00;100728.75;5550569;32;34240;-68
2022/10/24 06:24:18;;;;;;;;;;;;;;;12.86;100.00;100730.56;5536902;32;34831;-68
2022/10/24 06:27:21;;;;;;;;;;;;;;;12.90;100.00;100729.22;5550657;32;34333;-69
2022/10/24 06:30:24;;;;;;;;;;;;;;;12.97;100.00;100726.69;5549735;32;34302;-69
2022/10/24 06:33:27;;;;;;;;;;;;;;;13.05;100.00;100726.62;5550573;32;35295;-68
2022/10/24 06:36:30;;;;;;;;;;;;;;;12.92;100.00;100729.88;5536649;32;34449;-68
2022/10/24 06:39:34;;;;;;;;;;;;;;;12.72;100.00;100722.47;5550448;32;34333;-68
2022/10/24 06:42:37;;;;;;;;;;;;;;;12.63;100.00;100721.69;5550652;32;34631;-69
2022/10/24 06:45:41;;;;;;;;;;;;;;;12.59;100.00;100723.84;5550579;32;34230;-70
2022/10/24 06:48:45;;;;;;;;;;;;;;;12.56;100.00;100718.03;5550476;32;34179;-68
2022/10/24 06:51:49;;;;;;;;;;;;;;;12.68;100.00;100718.50;5550416;32;34953;-67
2022/10/24 06:54:52;;;;;;;;;;;;;;;12.53;100.00;100705.09;5550262;32;34376;-69
2022/10/24 06:57:55;;;;;;;;;;;;;;;12.54;100.00;100710.22;5536956;32;34585;-68
2022/10/24 07:00:59;;;;;;;;;;;;;;;12.59;100.00;100688.41;5550244;32;34579;-69
2022/10/24 07:04:04;;;;;;;;;;;;;;;12.66;100.00;100685.91;5550697;32;34427;-69
2022/10/24 07:07:11;;;;;;;;;;;;;;;12.82;100.00;100678.66;5550333;32;34880;-70
2022/10/24 07:10:14;;;;;;;;;;;;;;;12.74;100.00;100686.69;5536728;32;34237;-69
2022/10/24 07:13:18;;;;;;;;;;;;;;;12.85;100.00;100696.94;5536374;32;35400;-69
2022/10/24 07:16:21;;;;;;;;;;;;;;;12.86;100.00;100700.44;5550203;32;34944;-69
2022/10/24 07:19:26;;;;;;;;;;;;;;;12.74;100.00;100702.66;5550196;32;34728;-69
2022/10/24 07:22:29;;;;;;;;;;;;;;;13.00;100.00;100710.34;5550106;32;34166;-69
2022/10/24 07:25:37;;;;;;;;;;;;;;;12.90;100.00;100731.03;5535609;32;35825;-69
2022/10/24 07:28:45;;;;;;;;;;;;;;;12.78;100.00;100743.09;5549729;32;34290;-69
2022/10/24 07:31:48;;;;;;;;;;;;;;;12.63;100.00;100753.62;5536263;32;34882;-69
2022/10/24 07:34:51;;;;;;;;;;;;;;;12.77;100.00;100765.38;5535666;32;35638;-69
2022/10/24 07:37:55;;;;;;;;;;;;;;;12.62;100.00;100778.59;5536307;32;34860;-68
2022/10/24 07:41:01;;;;;;;;;;;;;;;12.53;100.00;100759.16;5536324;32;34342;-69
2022/10/24 07:44:05;;;;;;;;;;;;;;;12.49;100.00;100741.84;5549486;32;34447;-69
2022/10/24 07:47:10;;;;;;;;;;;;;;;12.40;100.00;100726.91;5535819;32;36254;-68
2022/10/24 07:50:16;;;;;;;;;;;;;;;12.38;100.00;100728.94;5549530;32;34920;-69
2022/10/24 07:53:20;;;;;;;;;;;;;;;12.42;100.00;100732.91;5535724;32;34948;-69
2022/10/24 07:56:24;;;;;;;;;;;;;;;12.35;100.00;100728.41;5549311;32;34739;-69
2022/10/24 07:59:29;;;;;;;;;;;;;;;12.29;100.00;100721.13;5535695;32;34262;-68
2022/10/24 08:02:43;;;;;;;;;;;;;;;12.26;100.00;100729.44;5549229;32;34406;-69
2022/10/24 08:05:47;;;;;;;;;;;;;;;12.34;100.00;100734.75;5549267;32;34828;-69
2022/10/24 08:08:50;;;;;;;;;;;;;;;12.47;100.00;100732.37;5548627;32;34813;-71
2022/10/24 08:11:54;;;;;;;;;;;;;;;12.44;100.00;100735.41;5549028;32;34301;-68
2022/10/24 08:14:58;;;;;;;;;;;;;;;12.38;100.00;100722.78;5548694;32;34625;-69
2022/10/24 08:18:02;;;;;;;;;;;;;;;12.30;100.00;100725.44;5534827;32;35547;-68
2022/10/24 08:21:06;;;;;;;;;;;;;;;12.40;100.00;100731.41;5549042;32;34933;-68
2022/10/24 08:24:09;;;;;;;;;;;;;;;12.50;100.00;100735.53;5535300;32;35123;-69
2022/10/24 08:27:13;;;;;;;;;;;;;;;12.71;100.00;100728.78;5535087;32;35062;-69
2022/10/24 08:30:19;;;;;;;;;;;;;;;12.57;100.00;100723.22;5548508;32;34474;-69
2022/10/24 08:33:22;;;;;;;;;;;;;;;12.61;100.00;100734.31;5548816;32;34354;-69
2022/10/24 08:36:29;;;;;;;;;;;;;;;12.69;100.00;100736.94;5548354;32;34340;-69
2022/10/24 08:39:32;;;;;;;;;;;;;;;12.75;100.00;100711.47;5551311;32;34748;-69
2022/10/24 08:42:36;;;;;;;;;;;;;;;12.96;100.00;100715.19;5551489;32;34564;-69
2022/10/24 08:45:47;;;;;;;;;;;;;;;13.20;100.00;100713.44;5551459;32;34635;-69
2022/10/24 08:48:59;;;;;;;;;;;;;;;13.38;100.00;100698.78;5551098;32;34298;-69
2022/10/24 08:52:05;;;;;;;;;;;;;;;13.61;100.00;100703.28;5551587;32;34546;-69
2022/10/24 08:55:30;;;;;;;;;;;;;;;13.79;100.00;100701.97;5551527;32;34855;-69
2022/10/24 08:58:51;;;;;;;;;;;;;;;13.93;100.00;100687.84;5551543;32;34739;-69
2022/10/24 09:01:57;;;;;;;;;;;;;;;14.18;100.00;100675.06;5551418;32;34868;-69
2022/10/24 09:05:12;;;;;;;;;;;;;;;14.33;100.00;100673.19;5551524;32;34234;-70
2022/10/24 09:08:36;;;;;;;;;;;;;;;14.58;100.00;100667.59;5537688;32;35026;-70
2022/10/24 09:11:46;;;;;;;;;;;;;;;14.50;100.00;100673.88;5520317;32;34305;-69
2022/10/24 09:14:57;;;;;;;;;;;;;;;14.20;100.00;100688.19;5551290;32;34293;-69
2022/10/24 09:18:00;;;;;;;;;;;;;;;14.29;100.00;100692.44;5551198;32;35250;-69
2022/10/24 09:21:07;;;;;;;;;;;;;;;14.28;100.00;100694.28;5550763;32;34911;-69
2022/10/24 09:24:29;;;;;;;;;;;;;;;14.40;100.00;100700.03;5551172;32;34883;-69
2022/10/24 09:27:37;;;;;;;;;;;;;;;14.22;100.00;100696.88;5537883;32;34249;-69
2022/10/24 09:30:40;;;;;;;;;;;;;;;14.21;100.00;100698.69;5551322;32;34080;-69
2022/10/24 09:33:44;;;;;;;;;;;;;;;13.95;100.00;100700.97;5551257;32;34273;-69
2022/10/24 09:36:47;;;;;;;;;;;;;;;14.03;100.00;100705.41;5551123;32;34173;-69
2022/10/24 09:40:03;;;;;;;;;;;;;;;13.77;100.00;100705.81;5537424;32;35418;-69
2022/10/24 09:43:21;;;;;;;;;;;;;;;13.80;100.00;100706.28;5537465;32;33925;-69
2022/10/24 09:46:34;;;;;;;;;;;;;;;13.63;100.00;100710.09;5524604;32;33171;-69
2022/10/24 09:49:40;;;;;;;;;;;;;;;13.62;100.00;100734.25;5550525;32;34556;-69
2022/10/24 09:52:47;;;;;;;;;;;;;;;13.66;100.00;100732.91;5537893;32;34320;-69
2022/10/24 09:55:58;;;;;;;;;;;;;;;13.60;100.00;100731.78;5551173;32;34484;-70
2022/10/24 09:59:25;;;;;;;;;;;;;;;13.75;100.00;100732.66;5537267;32;33220;-70
2022/10/24 10:02:33;;;;;;;;;;;;;;;13.76;100.00;100728.16;5551267;32;34898;-69
2022/10/24 10:05:48;;;;;;;;;;;;;;;13.66;100.00;100716.91;5551271;32;34635;-69
2022/10/24 10:08:53;;;;;;;;;;;;;;;13.49;100.00;100714.38;5550953;32;34638;-69
2022/10/24 10:11:59;;;;;;;;;;;;;;;13.39;100.00;100719.13;5550932;32;33986;-68
2022/10/24 10:15:26;;;;;;;;;;;;;;;13.30;100.00;100727.34;5550956;32;34339;-69
2022/10/24 10:18:38;;;;;;;;;;;;;;;13.43;100.00;100722.25;5526907;32;34233;-69
2022/10/24 10:22:00;;;;;;;;;;;;;;;13.47;100.00;100711.06;5536357;32;34322;-70
2022/10/24 10:25:03;;;;;;;;;;;;;;;13.30;100.00;100698.88;5537518;32;34243;-69
2022/10/24 10:28:21;;;;;;;;;;;;;;;13.42;100.00;100700.09;5550661;32;34990;-70
2022/10/24 10:31:36;;;;;;;;;;;;;;;13.59;100.00;100690.16;5550885;32;35064;-68
2022/10/24 10:34:44;;;;;;;;;;;;;;;13.75;100.00;100694.47;5536836;32;34608;-69
2022/10/24 10:37:55;;;;;;;;;;;;;;;13.62;100.00;100711.09;5550399;32;34203;-69
2022/10/24 10:41:05;;;;;;;;;;;;;;;13.83;100.00;100697.09;5550679;32;34929;-69
2022/10/24 10:44:33;;;;;;;;;;;;;;;13.66;100.00;100690.22;5537048;32;34708;-68
2022/10/24 10:47:46;;;;;;;;;;;;;;;13.66;100.00;100679.56;5550727;32;34695;-70
2022/10/24 10:51:04;;;;;;;;;;;;;;;13.79;100.00;100693.97;5536610;32;34737;-69
2022/10/24 10:54:48;;;;;;;;;;;;;;;14.09;100.00;100677.97;5550784;32;34447;-68
2022/10/24 10:58:00;;;;;;;;;;;;;;;13.91;100.00;100681.00;5471847;32;34813;-68
2022/10/24 11:01:22;;;;;;;;;;;;;;;14.16;100.00;100684.25;5472263;32;34999;-69
2022/10/24 11:04:33;;;;;;;;;;;;;;;14.21;100.00;100679.19;5550382;32;34788;-69
2022/10/24 11:07:50;;;;;;;;;;;;;;;14.29;100.00;100671.91;5550442;32;34971;-69
2022/10/24 11:10:56;;;;;;;;;;;;;;;14.30;100.00;100662.06;5550490;32;34323;-70
2022/10/24 11:13:59;;;;;;;;;;;;;;;14.71;100.00;100670.44;5550500;32;34858;-70
2022/10/24 11:17:13;;;;;;;;;;;;;;;14.88;100.00;100657.66;5550272;32;34180;-68
2022/10/24 11:20:25;;;;;;;;;;;;;;;14.87;100.00;100662.19;5549660;32;34960;-71
2022/10/24 11:23:32;;;;;;;;;;;;;;;14.99;100.00;100666.03;5550055;32;34995;-69
2022/10/24 11:26:54;;;;;;;;;;;;;;;14.99;100.00;100671.37;5523640;32;36630;-69
2022/10/24 11:30:02;;;;;;;;;;;;;;;14.63;100.00;100663.34;5550247;32;34295;-69
2022/10/24 11:33:09;;;;;;;;;;;;;;;14.81;100.00;100659.47;5536274;32;35035;-70
2022/10/24 11:36:26;;;;;;;;;;;;;;;14.75;100.00;100661.88;5535643;32;34191;-70
2022/10/24 11:39:35;;;;;;;;;;;;;;;14.59;100.00;100662.06;5550061;32;34622;-69
2022/10/24 11:42:57;;;;;;;;;;;;;;;14.42;100.00;100641.94;5536102;32;33969;-70
2022/10/24 11:46:06;;;;;;;;;;;;;;;14.81;100.00;100638.09;5549758;32;34683;-69
2022/10/24 11:49:30;;;;;;;;;;;;;;;15.26;100.00;100636.87;5549721;32;34375;-69
2022/10/24 11:52:37;;;;;;;;;;;;;;;15.30;100.00;100646.19;5535455;32;34533;-69
2022/10/24 11:55:45;;;;;;;;;;;;;;;15.27;100.00;100651.91;5535577;32;34588;-69
2022/10/24 11:58:48;;;;;;;;;;;;;;;15.30;100.00;100644.31;5549911;32;34919;-69
2022/10/24 12:01:53;;;;;;;;;;;;;;;15.28;100.00;100643.69;5549417;32;34783;-69
2022/10/24 12:04:59;;;;;;;;;;;;;;;15.18;100.00;100636.00;5549370;32;34130;-69
2022/10/24 12:08:21;;;;;;;;;;;;;;;14.90;100.00;100640.47;5549313;32;34705;-69
2022/10/24 12:11:42;;;;;;;;;;;;;;;15.04;100.00;100639.56;5535097;32;35254;-69
2022/10/24 12:15:04;;;;;;;;;;;;;;;14.94;100.00;100643.56;5537653;32;34778;-68
2022/10/24 12:18:19;;;;;;;;;;;;;;;15.21;100.00;100637.47;5551592;32;34345;-69
2022/10/24 12:21:25;;;;;;;;;;;;;;;15.07;100.00;100638.34;5552197;32;34879;-69
2022/10/24 12:24:31;;;;;;;;;;;;;;;15.16;100.00;100632.69;5538140;32;35048;-68
2022/10/24 12:27:38;;;;;;;;;;;;;;;15.04;100.00;100622.72;5551481;32;34312;-69
2022/10/24 12:30:42;;;;;;;;;;;;;;;15.29;100.00;100623.16;5550756;32;34893;-69
2022/10/24 12:33:46;;;;;;;;;;;;;;;15.25;100.00;100616.53;5551477;32;34824;-69
2022/10/24 12:37:10;;;;;;;;;;;;;;;15.26;100.00;100610.97;5537995;32;34952;-69
2022/10/24 12:40:32;;;;;;;;;;;;;;;15.10;100.00;100608.59;5537963;32;35164;-69
2022/10/24 12:43:39;;;;;;;;;;;;;;;15.30;100.00;100617.59;5551516;32;34913;-69
2022/10/24 12:46:43;;;;;;;;;;;;;;;15.55;100.00;100616.19;5537832;32;35175;-69
2022/10/24 12:49:46;;;;;;;;;;;;;;;15.33;100.00;100605.69;5551634;32;34286;-69
2022/10/24 12:53:03;;;;;;;;;;;;;;;15.16;100.00;100615.81;5537672;32;34605;-69
2022/10/24 12:56:09;;;;;;;;;;;;;;;15.24;100.00;100615.72;5537737;32;32365;-69
2022/10/24 12:59:33;;;;;;;;;;;;;;;15.38;100.00;100605.94;5551064;32;34921;-68
2022/10/24 13:02:50;;;;;;;;;;;;;;;15.46;100.00;100582.56;5525336;32;33552;-69
2022/10/24 13:06:11;;;;;;;;;;;;;;;15.22;100.00;100596.34;5537324;32;34565;-69
2022/10/24 13:09:34;;;;;;;;;;;;;;;15.43;100.00;100591.00;5551496;32;34288;-69
2022/10/24 13:12:44;;;;;;;;;;;;;;;15.55;100.00;100581.44;5551373;32;34966;-69
2022/10/24 13:16:02;;;;;;;;;;;;;;;15.77;100.00;100573.34;5551362;32;34161;-68
2022/10/24 13:19:05;;;;;;;;;;;;;;;15.68;100.00;100586.06;5524608;32;34253;-68
2022/10/24 13:22:27;;;;;;;;;;;;;;;15.76;100.00;100587.75;5537079;32;32739;-68
2022/10/24 13:25:34;;;;;;;;;;;;;;;15.98;100.00;100595.47;5550305;32;34952;-68
2022/10/24 13:28:39;;;;;;;;;;;;;;;15.43;100.00;100577.62;5524793;32;35100;-68
2022/10/24 13:31:43;;;;;;;;;;;;;;;15.35;100.00;100575.06;5537642;32;34395;-68
2022/10/24 13:34:51;;;;;;;;;;;;;;;15.58;100.00;100574.88;5536948;32;34965;-70
2022/10/24 13:37:56;;;;;;;;;;;;;;;15.50;100.00;100572.31;5537006;32;35271;-69
2022/10/24 13:41:04;;;;;;;;;;;;;;;15.36;100.00;100570.56;5525639;32;34280;-70
2022/10/24 13:44:11;;;;;;;;;;;;;;;15.60;100.00;100564.78;5550472;32;34916;-69
2022/10/24 13:47:18;;;;;;;;;;;;;;;16.00;100.00;100560.50;5537270;32;35295;-69
2022/10/24 13:50:27;;;;;;;;;;;;;;;15.53;100.00;100570.13;5550679;32;34231;-69
2022/10/24 13:53:34;;;;;;;;;;;;;;;15.61;100.00;100567.28;5550857;32;34248;-69
2022/10/24 13:56:40;;;;;;;;;;;;;;;15.52;100.00;100568.47;5551111;32;34586;-69
2022/10/24 13:59:43;;;;;;;;;;;;;;;15.22;100.00;100567.78;5550565;32;34328;-69
2022/10/24 14:02:46;;;;;;;;;;;;;;;15.22;100.00;100574.97;5550394;32;34550;-69
2022/10/24 14:05:55;;;;;;;;;;;;;;;15.39;100.00;100567.50;5550275;32;35036;-69
2022/10/24 14:09:01;;;;;;;;;;;;;;;15.40;100.00;100561.12;5535996;32;35765;-69
2022/10/24 14:12:20;;;;;;;;;;;;;;;15.51;100.00;100565.97;5550238;32;34537;-69
2022/10/24 14:15:28;;;;;;;;;;;;;;;15.53;100.00;100555.91;5536637;32;34951;-69
2022/10/24 14:18:35;;;;;;;;;;;;;;;15.47;100.00;100560.16;5549742;32;34875;-69
2022/10/24 14:21:41;;;;;;;;;;;;;;;15.56;100.00;100564.38;5536604;32;34523;-69
2022/10/24 14:24:46;;;;;;;;;;;;;;;15.67;100.00;100568.34;5549932;32;34195;-70
2022/10/24 14:27:52;;;;;;;;;;;;;;;15.58;100.00;100565.00;5536029;32;34566;-70
2022/10/24 14:30:58;;;;;;;;;;;;;;;15.47;100.00;100560.16;5549538;32;34233;-69
2022/10/24 14:34:04;;;;;;;;;;;;;;;15.39;100.00;100546.97;5536570;32;34320;-69
2022/10/24 14:37:26;;;;;;;;;;;;;;;15.43;100.00;100550.06;5549606;32;34882;-69
2022/10/24 14:40:30;;;;;;;;;;;;;;;15.38;100.00;100555.16;5549952;32;34729;-69
2022/10/24 14:43:33;;;;;;;;;;;;;;;15.40;100.00;100561.12;5550129;32;34817;-69
2022/10/24 14:46:39;;;;;;;;;;;;;;;15.33;100.00;100557.59;5535921;32;34372;-70
2022/10/24 14:49:43;;;;;;;;;;;;;;;15.46;100.00;100558.50;5549739;32;34318;-69
2022/10/24 14:52:47;;;;;;;;;;;;;;;15.49;100.00;100566.13;5550016;32;34336;-69
2022/10/24 14:55:52;;;;;;;;;;;;;;;15.33;100.00;100558.41;5549360;32;34563;-69
2022/10/24 14:58:57;;;;;;;;;;;;;;;15.26;100.00;100557.53;5549564;32;35010;-69
2022/10/24 15:02:21;;;;;;;;;;;;;;;15.21;100.00;100547.41;5536122;32;35046;-68
2022/10/24 15:05:30;;;;;;;;;;;;;;;15.23;100.00;100553.41;5536001;32;35233;-69
2022/10/24 15:08:36;;;;;;;;;;;;;;;15.18;100.00;100555.84;5536238;32;33356;-69
2022/10/24 15:11:42;;;;;;;;;;;;;;;15.11;100.00;100544.25;5549785;32;35057;-69
2022/10/24 15:14:50;;;;;;;;;;;;;;;15.11;100.00;100554.94;5536080;32;33711;-69
2022/10/24 15:17:58;;;;;;;;;;;;;;;15.12;100.00;100559.28;5535648;32;34047;-69
2022/10/24 15:21:05;;;;;;;;;;;;;;;15.06;100.00;100552.00;5535946;32;35072;-69
2022/10/24 15:24:19;;;;;;;;;;;;;;;14.89;100.00;100549.81;5549375;32;35007;-68
2022/10/24 15:27:28;;;;;;;;;;;;;;;14.82;100.00;100552.41;5549391;32;34349;-69
2022/10/24 15:30:33;;;;;;;;;;;;;;;14.89;100.00;100560.50;5550065;32;34305;-69
2022/10/24 15:33:38;;;;;;;;;;;;;;;14.88;100.00;100553.50;5549761;32;34864;-69
2022/10/24 15:36:48;;;;;;;;;;;;;;;14.82;100.00;100547.06;5536846;32;34688;-69
2022/10/24 15:39:54;;;;;;;;;;;;;;;14.81;100.00;100542.78;5535710;32;35870;-69
2022/10/24 15:42:57;;;;;;;;;;;;;;;14.74;100.00;100534.69;5549566;32;34810;-69
2022/10/24 15:46:02;;;;;;;;;;;;;;;14.75;100.00;100538.19;5535497;32;33960;-68
2022/10/24 15:49:05;;;;;;;;;;;;;;;14.61;100.00;100534.56;5551399;32;34302;-69
2022/10/24 15:52:13;;;;;;;;;;;;;;;14.54;100.00;100522.97;5538216;32;35116;-69
2022/10/24 15:55:20;;;;;;;;;;;;;;;14.54;100.00;100528.31;5551877;32;34912;-69
2022/10/24 15:58:27;;;;;;;;;;;;;;;14.55;100.00;100534.47;5538774;32;34831;-69